sensor_id;sensor_type;location;lat;lon;timestamp;pressure;altitude;pressure_sealevel;temperature;humidity
80124;BME280;69433;48.642;9.142;2023-11-19T00:02:21;96926.09;;;22.20;40.89
80124;BME280;69433;48.642;9.142;2023-11-19T00:04:48;96928.03;;;22.20;40.80
80124;BME280;69433;48.642;9.142;2023-11-19T00:07:13;96934.47;;;22.23;40.63
80124;BME280;69433;48.642;9.142;2023-11-19T00:09:39;96923.84;;;22.19;40.68
80124;BME280;69433;48.642;9.142;2023-11-19T00:12:15;96927.97;;;22.24;40.70
80124;BME280;69433;48.642;9.142;2023-11-19T00:14:45;96925.38;;;22.16;40.68
80124;BME280;69433;48.642;9.142;2023-11-19T00:17:11;96912.00;;;22.16;40.67
80124;BME280;69433;48.642;9.142;2023-11-19T00:19:37;96905.13;;;22.15;40.69
80124;BME280;69433;48.642;9.142;2023-11-19T00:22:05;96905.50;;;22.17;40.73
80124;BME280;69433;48.642;9.142;2023-11-19T00:24:30;96898.25;;;22.14;40.74
80124;BME280;69433;48.642;9.142;2023-11-19T00:26:58;96897.09;;;22.15;40.61
80124;BME280;69433;48.642;9.142;2023-11-19T00:29:23;96894.41;;;22.15;40.65
80124;BME280;69433;48.642;9.142;2023-11-19T00:32:00;96920.06;;;22.13;40.70
80124;BME280;69433;48.642;9.142;2023-11-19T00:34:27;96900.97;;;22.11;40.70
80124;BME280;69433;48.642;9.142;2023-11-19T00:36:59;96913.19;;;22.12;40.72
80124;BME280;69433;48.642;9.142;2023-11-19T00:39:31;96911.34;;;22.09;40.78
80124;BME280;69433;48.642;9.142;2023-11-19T00:41:56;96891.84;;;22.08;40.65
80124;BME280;69433;48.642;9.142;2023-11-19T00:44:21;96884.56;;;22.09;40.67
80124;BME280;69433;48.642;9.142;2023-11-19T00:46:46;96891.47;;;22.06;40.78
80124;BME280;69433;48.642;9.142;2023-11-19T00:49:23;96884.56;;;22.09;40.78
80124;BME280;69433;48.642;9.142;2023-11-19T00:51:51;96882.69;;;22.06;40.73
80124;BME280;69433;48.642;9.142;2023-11-19T00:54:16;96872.72;;;22.06;40.64
80124;BME280;69433;48.642;9.142;2023-11-19T00:56:41;96870.06;;;22.06;40.73
80124;BME280;69433;48.642;9.142;2023-11-19T00:59:06;96865.84;;;22.05;40.74
80124;BME280;69433;48.642;9.142;2023-11-19T01:01:39;96865.84;;;22.05;40.82
80124;BME280;69433;48.642;9.142;2023-11-19T01:04:04;96861.66;;;22.04;40.64
80124;BME280;69433;48.642;9.142;2023-11-19T01:06:30;96859.75;;;22.05;40.84
80124;BME280;69433;48.642;9.142;2023-11-19T01:08:56;96850.19;;;22.04;40.75
80124;BME280;69433;48.642;9.142;2023-11-19T01:11:26;96856.31;;;22.04;40.65
80124;BME280;69433;48.642;9.142;2023-11-19T01:13:56;96850.59;;;22.02;40.71
80124;BME280;69433;48.642;9.142;2023-11-19T01:16:37;96850.19;;;22.04;40.72
80124;BME280;69433;48.642;9.142;2023-11-19T01:19:02;96849.50;;;22.00;40.95
80124;BME280;69433;48.642;9.142;2023-11-19T01:21:32;96847.56;;;22.00;40.81
80124;BME280;69433;48.642;9.142;2023-11-19T01:23:59;96838.78;;;21.96;40.88
80124;BME280;69433;48.642;9.142;2023-11-19T01:26:25;96846.06;;;21.99;40.84
80124;BME280;69433;48.642;9.142;2023-11-19T01:28:55;96833.44;;;21.96;40.88
80124;BME280;69433;48.642;9.142;2023-11-19T01:31:25;96826.56;;;21.99;40.79
80124;BME280;69433;48.642;9.142;2023-11-19T01:33:51;96819.28;;;21.99;40.71
80124;BME280;69433;48.642;9.142;2023-11-19T01:36:17;96814.72;;;21.96;40.86
80124;BME280;69433;48.642;9.142;2023-11-19T01:38:42;96813.19;;;21.95;40.64
80124;BME280;69433;48.642;9.142;2023-11-19T01:41:10;96824.28;;;21.94;40.74
80124;BME280;69433;48.642;9.142;2023-11-19T01:43:45;96820.84;;;21.93;40.88
80124;BME280;69433;48.642;9.142;2023-11-19T01:46:12;96819.31;;;21.96;40.76
80124;BME280;69433;48.642;9.142;2023-11-19T01:48:45;96822.38;;;21.94;40.91
80124;BME280;69433;48.642;9.142;2023-11-19T01:51:14;96832.69;;;21.96;40.87
80124;BME280;69433;48.642;9.142;2023-11-19T01:53:42;96822.00;;;21.92;40.92
80124;BME280;69433;48.642;9.142;2023-11-19T01:56:09;96829.34;;;21.88;41.12
80124;BME280;69433;48.642;9.142;2023-11-19T01:58:36;96817.13;;;21.87;41.12
80124;BME280;69433;48.642;9.142;2023-11-19T02:01:02;96824.00;;;21.88;40.73
80124;BME280;69433;48.642;9.142;2023-11-19T02:03:31;96824.00;;;21.88;41.02
80124;BME280;69433;48.642;9.142;2023-11-19T02:05:58;96816.00;;;21.84;41.05
80124;BME280;69433;48.642;9.142;2023-11-19T02:08:30;96810.25;;;21.86;41.03
80124;BME280;69433;48.642;9.142;2023-11-19T02:11:06;96808.72;;;21.85;40.87
80124;BME280;69433;48.642;9.142;2023-11-19T02:13:32;96799.94;;;21.84;40.94
80124;BME280;69433;48.642;9.142;2023-11-19T02:15:58;96801.84;;;21.84;40.95
80124;BME280;69433;48.642;9.142;2023-11-19T02:18:26;96808.38;;;21.83;40.98
80124;BME280;69433;48.642;9.142;2023-11-19T02:21:00;96804.94;;;21.82;40.95
80124;BME280;69433;48.642;9.142;2023-11-19T02:23:27;96803.78;;;21.83;41.00
80124;BME280;69433;48.642;9.142;2023-11-19T02:26:14;96803.78;;;21.83;40.97
80124;BME280;69433;48.642;9.142;2023-11-19T02:28:42;96808.72;;;21.85;40.98
80124;BME280;69433;48.642;9.142;2023-11-19T02:31:08;96795.75;;;21.83;41.01
80124;BME280;69433;48.642;9.142;2023-11-19T02:33:39;96795.75;;;21.83;41.12
80124;BME280;69433;48.642;9.142;2023-11-19T02:36:06;96791.56;;;21.82;41.09
80124;BME280;69433;48.642;9.142;2023-11-19T02:38:33;96789.63;;;21.83;40.90
80124;BME280;69433;48.642;9.142;2023-11-19T02:40:59;96795.81;;;21.80;41.05
80124;BME280;69433;48.642;9.142;2023-11-19T02:43:31;96790.78;;;21.82;40.96
80124;BME280;69433;48.642;9.142;2023-11-19T02:46:07;96780.09;;;21.82;40.91
80124;BME280;69433;48.642;9.142;2023-11-19T02:48:34;96797.31;;;21.81;41.07
80124;BME280;69433;48.642;9.142;2023-11-19T02:51:10;96799.66;;;21.79;41.00
80124;BME280;69433;48.642;9.142;2023-11-19T02:53:36;96798.50;;;21.80;40.95
80124;BME280;69433;48.642;9.142;2023-11-19T02:56:06;96799.28;;;21.77;41.26
80124;BME280;69433;48.642;9.142;2023-11-19T02:58:45;96799.28;;;21.77;41.17
80124;BME280;69433;48.642;9.142;2023-11-19T03:01:26;96798.13;;;21.78;40.97
80124;BME280;69433;48.642;9.142;2023-11-19T03:03:57;96797.38;;;21.77;41.10
80124;BME280;69433;48.642;9.142;2023-11-19T03:06:24;96795.09;;;21.76;40.92
80124;BME280;69433;48.642;9.142;2023-11-19T03:08:50;96800.44;;;21.76;41.06
80124;BME280;69433;48.642;9.142;2023-11-19T03:11:16;96797.41;;;21.74;40.98
80124;BME280;69433;48.642;9.142;2023-11-19T03:13:42;96794.72;;;21.74;41.19
80124;BME280;69433;48.642;9.142;2023-11-19T03:16:08;96805.09;;;21.72;41.09
80124;BME280;69433;48.642;9.142;2023-11-19T03:18:40;96798.53;;;21.76;41.10
80124;BME280;69433;48.642;9.142;2023-11-19T03:21:06;96798.91;;;21.75;40.97
80124;BME280;69433;48.642;9.142;2023-11-19T03:23:33;96811.94;;;21.73;41.13
80124;BME280;69433;48.642;9.142;2023-11-19T03:25:59;96802.00;;;21.73;41.15
80124;BME280;69433;48.642;9.142;2023-11-19T03:28:27;96806.25;;;21.71;40.98
80124;BME280;69433;48.642;9.142;2023-11-19T03:30:53;96806.59;;;21.73;41.01
80124;BME280;69433;48.642;9.142;2023-11-19T03:33:18;96804.34;;;21.71;41.09
80124;BME280;69433;48.642;9.142;2023-11-19T03:35:43;96806.94;;;21.75;41.08
80124;BME280;69433;48.642;9.142;2023-11-19T03:38:12;96806.59;;;21.73;41.16
80124;BME280;69433;48.642;9.142;2023-11-19T03:40:44;96799.69;;;21.75;41.02
80124;BME280;69433;48.642;9.142;2023-11-19T03:43:09;96805.78;;;21.76;41.04
80124;BME280;69433;48.642;9.142;2023-11-19T03:45:34;96806.16;;;21.78;41.02
80124;BME280;69433;48.642;9.142;2023-11-19T03:48:09;96790.06;;;21.81;40.82
80124;BME280;69433;48.642;9.142;2023-11-19T03:50:34;96791.97;;;21.81;40.91
80124;BME280;69433;48.642;9.142;2023-11-19T03:53:01;96791.97;;;21.81;40.72
80124;BME280;69433;48.642;9.142;2023-11-19T03:55:33;96791.22;;;21.80;40.75
80124;BME280;69433;48.642;9.142;2023-11-19T03:57:58;96794.66;;;21.81;40.82
80124;BME280;69433;48.642;9.142;2023-11-19T04:00:30;96802.69;;;21.81;40.67
80124;BME280;69433;48.642;9.142;2023-11-19T04:03:02;96794.66;;;21.81;40.66
80124;BME280;69433;48.642;9.142;2023-11-19T04:05:29;96792.75;;;21.81;40.79
80124;BME280;69433;48.642;9.142;2023-11-19T04:07:56;96782.44;;;21.80;40.66
80124;BME280;69433;48.642;9.142;2023-11-19T04:10:23;96776.69;;;21.81;40.72
80124;BME280;69433;48.642;9.142;2023-11-19T04:12:52;96769.38;;;21.82;40.50
80124;BME280;69433;48.642;9.142;2023-11-19T04:15:19;96763.69;;;21.80;40.55
80124;BME280;69433;48.642;9.142;2023-11-19T04:17:46;96766.38;;;21.80;40.47
80124;BME280;69433;48.642;9.142;2023-11-19T04:20:12;96781.28;;;21.81;40.63
80124;BME280;69433;48.642;9.142;2023-11-19T04:22:43;96794.28;;;21.79;40.47
80124;BME280;69433;48.642;9.142;2023-11-19T04:25:23;96794.28;;;21.79;40.65
80124;BME280;69433;48.642;9.142;2023-11-19T04:27:51;96789.69;;;21.79;40.83
80124;BME280;69433;48.642;9.142;2023-11-19T04:30:17;96779.41;;;21.78;40.70
80124;BME280;69433;48.642;9.142;2023-11-19T04:32:43;96774.44;;;21.76;40.85
80124;BME280;69433;48.642;9.142;2023-11-19T04:35:09;96801.97;;;21.77;40.83
80124;BME280;69433;48.642;9.142;2023-11-19T04:37:34;96807.31;;;21.77;40.98
80124;BME280;69433;48.642;9.142;2023-11-19T04:40:03;96804.63;;;21.77;40.59
80124;BME280;69433;48.642;9.142;2023-11-19T04:42:32;96792.00;;;21.77;40.48
80124;BME280;69433;48.642;9.142;2023-11-19T04:44:57;96796.59;;;21.77;40.75
80124;BME280;69433;48.642;9.142;2023-11-19T04:47:26;96799.28;;;21.77;40.53
80124;BME280;69433;48.642;9.142;2023-11-19T04:49:53;96806.56;;;21.76;40.68
80124;BME280;69433;48.642;9.142;2023-11-19T04:52:20;96801.19;;;21.76;40.60
80124;BME280;69433;48.642;9.142;2023-11-19T04:54:49;96807.31;;;21.77;40.71
80124;BME280;69433;48.642;9.142;2023-11-19T04:57:20;96805.41;;;21.77;40.62
80124;BME280;69433;48.642;9.142;2023-11-19T04:59:48;96808.47;;;21.76;40.55
80124;BME280;69433;48.642;9.142;2023-11-19T05:02:26;96811.91;;;21.76;40.82
80124;BME280;69433;48.642;9.142;2023-11-19T05:04:54;96819.16;;;21.76;40.61
80124;BME280;69433;48.642;9.142;2023-11-19T05:07:20;96811.91;;;21.76;40.73
80124;BME280;69433;48.642;9.142;2023-11-19T05:09:45;96806.56;;;21.76;40.53
80124;BME280;69433;48.642;9.142;2023-11-19T05:12:11;96813.44;;;21.74;40.74
80124;BME280;69433;48.642;9.142;2023-11-19T05:14:38;96805.44;;;21.74;40.64
80124;BME280;69433;48.642;9.142;2023-11-19T05:17:10;96801.59;;;21.75;40.61
80124;BME280;69433;48.642;9.142;2023-11-19T05:19:35;96801.22;;;21.73;40.79
80124;BME280;69433;48.642;9.142;2023-11-19T05:22:02;96798.91;;;21.75;40.66
80124;BME280;69433;48.642;9.142;2023-11-19T05:24:27;96794.72;;;21.74;40.57
80124;BME280;69433;48.642;9.142;2023-11-19T05:26:53;96795.47;;;21.74;40.63
80124;BME280;69433;48.642;9.142;2023-11-19T05:29:18;96800.06;;;21.74;40.82
80124;BME280;69433;48.642;9.142;2023-11-19T05:31:44;96802.75;;;21.74;40.70
80124;BME280;69433;48.642;9.142;2023-11-19T05:34:10;96804.66;;;21.73;40.69
80124;BME280;69433;48.642;9.142;2023-11-19T05:36:35;96813.44;;;21.74;40.60
80124;BME280;69433;48.642;9.142;2023-11-19T05:39:00;96813.13;;;21.72;40.61
80124;BME280;69433;48.642;9.142;2023-11-19T05:41:34;96805.81;;;21.72;40.77
80124;BME280;69433;48.642;9.142;2023-11-19T05:43:59;96800.91;;;21.71;40.56
80124;BME280;69433;48.642;9.142;2023-11-19T05:46:24;96798.22;;;21.71;40.63
80124;BME280;69433;48.642;9.142;2023-11-19T05:48:52;96792.88;;;21.71;40.64
80124;BME280;69433;48.642;9.142;2023-11-19T05:51:18;96796.31;;;21.71;40.61
80124;BME280;69433;48.642;9.142;2023-11-19T05:53:44;96797.78;;;21.72;40.69
80124;BME280;69433;48.642;9.142;2023-11-19T05:56:10;96807.00;;;21.71;40.97
80124;BME280;69433;48.642;9.142;2023-11-19T05:58:36;96802.81;;;21.70;40.73
80124;BME280;69433;48.642;9.142;2023-11-19T06:01:02;96800.16;;;21.67;40.63
80124;BME280;69433;48.642;9.142;2023-11-19T06:03:29;96810.06;;;21.70;40.80
80124;BME280;69433;48.642;9.142;2023-11-19T06:05:57;96811.22;;;21.69;40.62
80124;BME280;69433;48.642;9.142;2023-11-19T06:08:22;96812.75;;;21.70;40.86
80124;BME280;69433;48.642;9.142;2023-11-19T06:10:47;96815.81;;;21.68;40.87
80124;BME280;69433;48.642;9.142;2023-11-19T06:13:22;96818.09;;;21.70;40.56
80124;BME280;69433;48.642;9.142;2023-11-19T06:15:48;96808.94;;;21.71;40.59
80124;BME280;69433;48.642;9.142;2023-11-19T06:18:23;96814.28;;;21.71;40.52
80124;BME280;69433;48.642;9.142;2023-11-19T06:20:48;96810.06;;;21.70;40.85
80124;BME280;69433;48.642;9.142;2023-11-19T06:23:22;96813.91;;;21.69;40.77
80124;BME280;69433;48.642;9.142;2023-11-19T06:25:48;96812.75;;;21.70;40.57
80124;BME280;69433;48.642;9.142;2023-11-19T06:28:14;96808.56;;;21.69;40.70
80124;BME280;69433;48.642;9.142;2023-11-19T06:30:39;96810.47;;;21.68;40.72
80124;BME280;69433;48.642;9.142;2023-11-19T06:33:07;96815.44;;;21.70;40.65
80124;BME280;69433;48.642;9.142;2023-11-19T06:35:32;96801.69;;;21.68;40.60
80124;BME280;69433;48.642;9.142;2023-11-19T06:38:03;96816.59;;;21.69;40.59
80124;BME280;69433;48.642;9.142;2023-11-19T06:40:35;96809.72;;;21.68;40.75
80124;BME280;69433;48.642;9.142;2023-11-19T06:43:00;96816.97;;;21.67;40.89
80124;BME280;69433;48.642;9.142;2023-11-19T06:45:26;96823.50;;;21.66;41.15
80124;BME280;69433;48.642;9.142;2023-11-19T06:48:05;96818.13;;;21.66;40.77
80124;BME280;69433;48.642;9.142;2023-11-19T06:50:31;96821.97;;;21.65;40.75
80124;BME280;69433;48.642;9.142;2023-11-19T06:52:57;96818.53;;;21.65;40.82
80124;BME280;69433;48.642;9.142;2023-11-19T06:55:22;96820.06;;;21.66;40.60
80124;BME280;69433;48.642;9.142;2023-11-19T06:57:47;96836.91;;;21.63;40.70
80124;BME280;69433;48.642;9.142;2023-11-19T07:00:15;96829.22;;;21.65;40.82
80124;BME280;69433;48.642;9.142;2023-11-19T07:02:50;96820.84;;;21.63;40.66
80124;BME280;69433;48.642;9.142;2023-11-19T07:05:17;96818.16;;;21.63;40.91
80124;BME280;69433;48.642;9.142;2023-11-19T07:07:43;96822.38;;;21.64;40.74
80124;BME280;69433;48.642;9.142;2023-11-19T07:10:08;96821.22;;;21.65;40.68
80124;BME280;69433;48.642;9.142;2023-11-19T07:12:35;96833.44;;;21.66;40.52
80124;BME280;69433;48.642;9.142;2023-11-19T07:15:01;96827.31;;;21.65;40.74
80124;BME280;69433;48.642;9.142;2023-11-19T07:17:31;96822.72;;;21.66;40.74
80124;BME280;69433;48.642;9.142;2023-11-19T07:19:59;96829.59;;;21.67;40.63
80124;BME280;69433;48.642;9.142;2023-11-19T07:22:25;96836.09;;;21.66;40.86
80124;BME280;69433;48.642;9.142;2023-11-19T07:24:58;96850.25;;;21.66;40.37
80124;BME280;69433;48.642;9.142;2023-11-19T07:27:24;96861.34;;;21.65;40.63
80124;BME280;69433;48.642;9.142;2023-11-19T07:29:51;96859.81;;;21.64;40.91
80124;BME280;69433;48.642;9.142;2023-11-19T07:32:16;96851.03;;;21.63;41.05
80124;BME280;69433;48.642;9.142;2023-11-19T07:34:43;96844.91;;;21.63;40.78
80124;BME280;69433;48.642;9.142;2023-11-19T07:37:09;96855.63;;;21.63;40.77
80124;BME280;69433;48.642;9.142;2023-11-19T07:39:37;96854.16;;;21.58;41.26
80124;BME280;69433;48.642;9.142;2023-11-19T07:42:17;96864.06;;;21.61;41.22
80124;BME280;69433;48.642;9.142;2023-11-19T07:44:43;96869.75;;;21.63;41.21
80124;BME280;69433;48.642;9.142;2023-11-19T07:47:10;96870.94;;;21.62;41.07
80124;BME280;69433;48.642;9.142;2023-11-19T07:49:38;96877.84;;;21.60;40.97
80124;BME280;69433;48.642;9.142;2023-11-19T07:52:04;96874.00;;;21.61;41.15
80124;BME280;69433;48.642;9.142;2023-11-19T07:54:31;96877.84;;;21.60;41.27
80124;BME280;69433;48.642;9.142;2023-11-19T07:57:00;96877.09;;;21.59;40.91
80124;BME280;69433;48.642;9.142;2023-11-19T07:59:26;96883.94;;;21.60;41.01
80124;BME280;69433;48.642;9.142;2023-11-19T08:01:54;96890.06;;;21.61;41.15
80124;BME280;69433;48.642;9.142;2023-11-19T08:04:20;96886.22;;;21.62;41.18
80124;BME280;69433;48.642;9.142;2023-11-19T08:06:45;96864.84;;;21.62;41.14
80124;BME280;69433;48.642;9.142;2023-11-19T08:09:13;96859.47;;;21.62;41.13
80124;BME280;69433;48.642;9.142;2023-11-19T08:11:41;96863.25;;;21.64;41.13
80124;BME280;69433;48.642;9.142;2023-11-19T08:14:06;96863.97;;;21.68;41.22
80124;BME280;69433;48.642;9.142;2023-11-19T08:16:32;96860.09;;;21.73;40.91
80124;BME280;69433;48.642;9.142;2023-11-19T08:18:57;96854.31;;;21.78;40.90
80124;BME280;69433;48.642;9.142;2023-11-19T08:21:23;96854.22;;;21.85;40.73
80124;BME280;69433;48.642;9.142;2023-11-19T08:23:50;96852.97;;;21.93;40.68
80124;BME280;69433;48.642;9.142;2023-11-19T08:26:23;96853.69;;;22.01;40.61
80124;BME280;69433;48.642;9.142;2023-11-19T08:28:48;96847.09;;;22.09;40.44
80124;BME280;69433;48.642;9.142;2023-11-19T08:31:16;96842.78;;;22.15;40.53
80124;BME280;69433;48.642;9.142;2023-11-19T15:36:30;96751.28;;;21.63;45.06
80124;BME280;69433;48.642;9.142;2023-11-19T15:38:57;96749.34;;;21.94;44.67
80124;BME280;69433;48.642;9.142;2023-11-19T15:41:22;96755.91;;;22.19;44.19
80124;BME280;69433;48.642;9.142;2023-11-19T15:43:47;96755.22;;;22.39;43.50
80124;BME280;69433;48.642;9.142;2023-11-19T15:46:13;96759.94;;;22.54;43.33
80124;BME280;69433;48.642;9.142;2023-11-19T15:48:38;96753.25;;;22.66;43.10
80124;BME280;69433;48.642;9.142;2023-11-19T15:51:03;96741.69;;;22.69;42.50
80124;BME280;69433;48.642;9.142;2023-11-19T15:53:30;96755.78;;;22.73;42.47
80124;BME280;69433;48.642;9.142;2023-11-19T15:56:00;96764.44;;;22.84;42.52
80124;BME280;69433;48.642;9.142;2023-11-19T15:58:33;96758.94;;;22.91;42.32
80124;BME280;69433;48.642;9.142;2023-11-19T16:01:00;96753.88;;;22.97;42.12
80124;BME280;69433;48.642;9.142;2023-11-19T16:03:25;96745.00;;;23.00;42.24
80124;BME280;69433;48.642;9.142;2023-11-19T16:05:51;96748.38;;;23.04;42.24
80124;BME280;69433;48.642;9.142;2023-11-19T16:08:19;96742.94;;;23.08;42.31
80124;BME280;69433;48.642;9.142;2023-11-19T16:10:48;96744.03;;;23.10;41.84
80124;BME280;69433;48.642;9.142;2023-11-19T16:13:15;96748.19;;;23.15;42.08
80124;BME280;69433;48.642;9.142;2023-11-19T16:15:41;96743.84;;;23.21;42.20
80124;BME280;69433;48.642;9.142;2023-11-19T16:18:06;96750.66;;;23.25;42.17
80124;BME280;69433;48.642;9.142;2023-11-19T16:20:36;96747.47;;;23.30;41.87
80124;BME280;69433;48.642;9.142;2023-11-19T16:23:02;96750.09;;;23.34;41.92
80124;BME280;69433;48.642;9.142;2023-11-19T16:25:35;96757.31;;;23.37;41.67
80124;BME280;69433;48.642;9.142;2023-11-19T16:28:05;96756.50;;;23.40;41.65
80124;BME280;69433;48.642;9.142;2023-11-19T16:30:39;96772.09;;;23.45;41.63
80124;BME280;69433;48.642;9.142;2023-11-19T16:33:06;96776.28;;;23.46;41.74
80124;BME280;69433;48.642;9.142;2023-11-19T16:35:32;96777.44;;;23.45;40.97
80124;BME280;69433;48.642;9.142;2023-11-19T16:37:59;96763.38;;;23.41;40.75
80124;BME280;69433;48.642;9.142;2023-11-19T16:40:39;96761.16;;;23.36;39.77
80124;BME280;69433;48.642;9.142;2023-11-19T16:43:08;96767.78;;;23.31;39.90
80124;BME280;69433;48.642;9.142;2023-11-19T16:45:33;96759.47;;;23.26;39.06
80124;BME280;69433;48.642;9.142;2023-11-19T16:47:59;96774.50;;;23.20;38.81
80124;BME280;69433;48.642;9.142;2023-11-19T16:50:27;96779.94;;;23.16;38.59
80124;BME280;69433;48.642;9.142;2023-11-19T16:52:53;96777.31;;;23.13;38.67
80124;BME280;69433;48.642;9.142;2023-11-19T16:55:18;96778.50;;;23.12;38.33
80124;BME280;69433;48.642;9.142;2023-11-19T16:57:43;96776.31;;;23.07;38.33
80124;BME280;69433;48.642;9.142;2023-11-19T17:00:15;96780.19;;;23.02;38.16
80124;BME280;69433;48.642;9.142;2023-11-19T17:02:40;96782.59;;;22.97;38.13
80124;BME280;69433;48.642;9.142;2023-11-19T17:05:09;96783.41;;;22.93;37.91
80124;BME280;69433;48.642;9.142;2023-11-19T17:07:34;96778.09;;;22.90;37.98
80124;BME280;69433;48.642;9.142;2023-11-19T17:10:00;96785.06;;;22.87;37.98
80124;BME280;69433;48.642;9.142;2023-11-19T17:12:33;96777.06;;;22.84;37.72
80124;BME280;69433;48.642;9.142;2023-11-19T17:15:05;96781.31;;;22.81;37.81
80124;BME280;69433;48.642;9.142;2023-11-19T17:17:34;96777.47;;;22.82;38.38
80124;BME280;69433;48.642;9.142;2023-11-19T17:20:04;96793.56;;;22.82;38.54
80124;BME280;69433;48.642;9.142;2023-11-19T17:22:32;96795.09;;;22.83;38.90
80124;BME280;69433;48.642;9.142;2023-11-19T17:24:58;96804.28;;;22.82;38.81
80124;BME280;69433;48.642;9.142;2023-11-19T17:27:33;96808.88;;;22.82;39.04
80124;BME280;69433;48.642;9.142;2023-11-19T17:29:58;96811.56;;;22.82;39.03
80124;BME280;69433;48.642;9.142;2023-11-19T17:32:24;96812.72;;;22.81;39.15
80124;BME280;69433;48.642;9.142;2023-11-19T17:34:50;96821.19;;;22.79;39.23
80124;BME280;69433;48.642;9.142;2023-11-19T17:37:16;96812.38;;;22.79;39.45
80124;BME280;69433;48.642;9.142;2023-11-19T17:39:45;96811.63;;;22.78;39.33
80124;BME280;69433;48.642;9.142;2023-11-19T17:42:12;96810.88;;;22.78;39.25
80124;BME280;69433;48.642;9.142;2023-11-19T17:44:38;96806.25;;;22.78;39.24
80124;BME280;69433;48.642;9.142;2023-11-19T17:47:15;96810.41;;;22.83;39.53
80124;BME280;69433;48.642;9.142;2023-11-19T17:49:47;96815.72;;;22.86;39.76
80124;BME280;69433;48.642;9.142;2023-11-19T17:52:13;96816.00;;;22.92;39.63
80124;BME280;69433;48.642;9.142;2023-11-19T17:54:41;96815.09;;;22.99;39.74
80124;BME280;69433;48.642;9.142;2023-11-19T17:57:06;96823.44;;;23.04;39.81
80124;BME280;69433;48.642;9.142;2023-11-19T17:59:33;96827.53;;;23.12;39.81
80124;BME280;69433;48.642;9.142;2023-11-19T18:01:59;96824.44;;;23.14;40.12
80124;BME280;69433;48.642;9.142;2023-11-19T18:04:27;96818.22;;;23.17;39.78
80124;BME280;69433;48.642;9.142;2023-11-19T18:06:53;96822.78;;;23.20;39.56
80124;BME280;69433;48.642;9.142;2023-11-19T18:09:19;96826.56;;;23.22;39.79
80124;BME280;69433;48.642;9.142;2023-11-19T18:11:45;96811.16;;;23.26;39.65
80124;BME280;69433;48.642;9.142;2023-11-19T18:14:17;96811.84;;;23.30;39.83
80124;BME280;69433;48.642;9.142;2023-11-19T18:16:42;96813.31;;;23.35;39.60
80124;BME280;69433;48.642;9.142;2023-11-19T18:19:10;96809.78;;;23.38;39.77
80124;BME280;69433;48.642;9.142;2023-11-19T18:21:35;96812.81;;;23.40;39.76
80124;BME280;69433;48.642;9.142;2023-11-19T18:24:01;96814.69;;;23.43;39.57
80124;BME280;69433;48.642;9.142;2023-11-19T18:26:32;96822.66;;;23.47;39.80
80124;BME280;69433;48.642;9.142;2023-11-19T18:29:00;96807.69;;;23.49;39.59
80124;BME280;69433;48.642;9.142;2023-11-19T18:31:27;96819.19;;;23.50;39.68
80124;BME280;69433;48.642;9.142;2023-11-19T18:33:53;96807.69;;;23.49;39.43
80124;BME280;69433;48.642;9.142;2023-11-19T18:36:18;96809.22;;;23.50;39.56
80124;BME280;69433;48.642;9.142;2023-11-19T18:38:44;96806.16;;;23.48;39.46
80124;BME280;69433;48.642;9.142;2023-11-19T18:41:10;96801.19;;;23.47;39.47
80124;BME280;69433;48.642;9.142;2023-11-19T18:43:39;96805.03;;;23.46;39.38
80124;BME280;69433;48.642;9.142;2023-11-19T18:46:04;96804.28;;;23.45;39.63
80124;BME280;69433;48.642;9.142;2023-11-19T18:48:30;96813.94;;;23.43;39.82
80124;BME280;69433;48.642;9.142;2023-11-19T18:50:55;96808.22;;;23.41;39.51
80124;BME280;69433;48.642;9.142;2023-11-19T18:53:22;96808.63;;;23.39;39.94
80124;BME280;69433;48.642;9.142;2023-11-19T18:56:00;96809.44;;;23.36;40.00
80124;BME280;69433;48.642;9.142;2023-11-19T18:58:25;96801.41;;;23.36;39.85
80124;BME280;69433;48.642;9.142;2023-11-19T19:00:50;96807.97;;;23.35;39.83
80124;BME280;69433;48.642;9.142;2023-11-19T19:03:16;96804.56;;;23.31;40.10
80124;BME280;69433;48.642;9.142;2023-11-19T19:05:46;96808.81;;;23.28;40.21
80124;BME280;69433;48.642;9.142;2023-11-19T19:08:11;96821.47;;;23.28;40.35
80124;BME280;69433;48.642;9.142;2023-11-19T19:10:40;96807.38;;;23.24;40.23
80124;BME280;69433;48.642;9.142;2023-11-19T19:13:06;96818.13;;;23.24;40.38
80124;BME280;69433;48.642;9.142;2023-11-19T19:15:44;96826.56;;;23.22;40.27
80124;BME280;69433;48.642;9.142;2023-11-19T19:18:10;96818.94;;;23.21;40.43
80124;BME280;69433;48.642;9.142;2023-11-19T19:20:35;96804.75;;;23.20;40.39
80124;BME280;69433;48.642;9.142;2023-11-19T19:23:07;96804.00;;;23.20;40.52
80124;BME280;69433;48.642;9.142;2023-11-19T19:25:35;96813.22;;;23.19;40.71
80124;BME280;69433;48.642;9.142;2023-11-19T19:28:03;96818.59;;;23.19;40.64
80124;BME280;69433;48.642;9.142;2023-11-19T19:30:37;96817.50;;;23.16;40.66
80124;BME280;69433;48.642;9.142;2023-11-19T19:33:05;96815.22;;;23.15;40.75
80124;BME280;69433;48.642;9.142;2023-11-19T19:35:33;96820.59;;;23.15;40.73
80124;BME280;69433;48.642;9.142;2023-11-19T19:37:59;96819.06;;;23.14;40.79
80124;BME280;69433;48.642;9.142;2023-11-19T19:40:31;96824.84;;;23.12;40.76
80124;BME280;69433;48.642;9.142;2023-11-19T19:42:56;96825.25;;;23.11;40.84
80124;BME280;69433;48.642;9.142;2023-11-19T19:45:24;96840.97;;;23.09;40.88
80124;BME280;69433;48.642;9.142;2023-11-19T19:48:05;96839.81;;;23.10;40.98
80124;BME280;69433;48.642;9.142;2023-11-19T19:50:31;96851.78;;;23.05;40.86
80124;BME280;69433;48.642;9.142;2023-11-19T19:52:57;96844.06;;;23.07;41.21
80124;BME280;69433;48.642;9.142;2023-11-19T19:55:25;96846.69;;;23.11;40.88
80124;BME280;69433;48.642;9.142;2023-11-19T19:57:51;96859.66;;;23.16;40.99
80124;BME280;69433;48.642;9.142;2023-11-19T20:00:18;96863.00;;;23.20;41.03
80124;BME280;69433;48.642;9.142;2023-11-19T20:02:46;96855.66;;;23.24;40.86
80124;BME280;69433;48.642;9.142;2023-11-19T20:05:13;96856.34;;;23.28;40.71
80124;BME280;69433;48.642;9.142;2023-11-19T20:07:40;96850.94;;;23.31;41.00